Terminal Aerodrome Forecast
Issued by NWS Upton, NY

Home | Current Version | Previous Version | Text Only | Print | Product List | Glossary On
Versions: 1 2 3 4 5 6 7 8 9 10 11 12 13 14 15 16 17 18 19 20 21 22 23 24 25 26 27 28 29 30 31 32 33
000
FTUS41 KOKX 250242 AAA
TAFJFK
TAF AMD
KJFK 250242Z 2503/2606 22008KT P6SM FEW200
     FM252000 25009KT P6SM SCT100 BKN200
     FM252300 28010KT P6SM VCSH BKN070 BKN100
     FM260200 29011G19KT P6SM OVC040=

USA.gov is the U.S. government's official web portal to all federal, state and local government web resources and services.